createdAt,value
2017-08-19T00:00:29.840Z,16.70
2017-08-19T00:05:46.526Z,16.60
2017-08-19T00:10:48.105Z,16.60
2017-08-19T00:15:49.665Z,16.50
2017-08-19T00:20:51.228Z,16.40
2017-08-19T00:25:52.798Z,16.30
2017-08-19T00:30:54.381Z,16.30
2017-08-19T00:35:55.946Z,16.20
2017-08-19T00:40:57.536Z,16.10
2017-08-19T00:45:59.113Z,16.10
2017-08-19T00:51:00.773Z,16.10
2017-08-19T00:56:02.372Z,16.10
2017-08-19T01:01:03.945Z,16.10
2017-08-19T01:06:05.558Z,16.10
2017-08-19T01:11:07.133Z,16.20
2017-08-19T01:16:08.714Z,16.10
2017-08-19T01:21:10.320Z,16.20
2017-08-19T01:26:24.101Z,16.20
2017-08-19T01:31:25.673Z,16.20
2017-08-19T01:36:27.289Z,16.20
2017-08-19T01:41:28.824Z,16.00
2017-08-19T01:46:30.384Z,16.00
2017-08-19T01:51:31.940Z,15.90
2017-08-19T01:56:33.500Z,15.80
2017-08-19T02:01:35.065Z,15.80
2017-08-19T02:06:36.629Z,15.90
2017-08-19T02:11:38.204Z,15.80
2017-08-19T02:16:39.780Z,15.80
2017-08-19T02:21:41.347Z,15.90
2017-08-19T02:26:42.916Z,15.90
2017-08-19T02:31:44.502Z,15.70
2017-08-19T02:37:01.600Z,15.60
2017-08-19T02:42:17.880Z,15.70
2017-08-19T02:47:34.460Z,15.70
2017-08-19T02:52:36.025Z,15.70
2017-08-19T02:57:41.980Z,15.70
2017-08-19T03:02:58.562Z,15.80
2017-08-19T03:08:00.167Z,15.80
2017-08-19T03:13:16.667Z,15.70
2017-08-19T03:18:18.244Z,15.70
2017-08-19T03:23:19.751Z,15.70
2017-08-19T03:28:21.335Z,15.70
2017-08-19T03:33:22.897Z,15.80
2017-08-19T03:38:24.464Z,15.80
2017-08-19T03:43:26.042Z,15.70
2017-08-19T03:48:27.624Z,15.70
2017-08-19T03:53:29.200Z,15.70
2017-08-19T03:58:30.777Z,15.70
2017-08-19T04:03:32.383Z,15.60
2017-08-19T04:08:33.959Z,15.60
2017-08-19T04:13:35.529Z,15.60
2017-08-19T04:18:37.101Z,15.50
2017-08-19T04:23:38.672Z,15.60
2017-08-19T04:28:40.230Z,15.50
2017-08-19T04:33:41.813Z,15.50
2017-08-19T04:38:43.320Z,15.60
2017-08-19T04:43:44.893Z,15.50
2017-08-19T04:48:46.396Z,15.40
2017-08-19T04:53:47.948Z,15.40
2017-08-19T04:58:49.531Z,15.40
2017-08-19T05:03:51.089Z,15.40
2017-08-19T05:08:52.653Z,15.40
2017-08-19T05:13:54.395Z,15.40
2017-08-19T05:18:56.065Z,15.40
2017-08-19T05:23:57.749Z,15.40
2017-08-19T05:28:59.429Z,15.50
2017-08-19T05:34:02.016Z,15.70
2017-08-19T05:39:03.801Z,15.90
2017-08-19T05:44:05.577Z,16.00
2017-08-19T05:49:08.260Z,16.30
2017-08-19T05:54:09.820Z,16.60
2017-08-19T05:59:14.460Z,16.80
2017-08-19T06:04:16.147Z,17.00
2017-08-19T06:09:17.813Z,17.00
2017-08-19T06:14:20.421Z,16.90
2017-08-19T06:19:22.080Z,17.40
2017-08-19T06:24:23.753Z,17.40
2017-08-19T06:29:25.433Z,17.40
2017-08-19T06:34:29.213Z,17.70
2017-08-19T06:39:30.861Z,18.00
2017-08-19T06:44:32.528Z,18.50
2017-08-19T06:49:35.779Z,18.20
2017-08-19T06:54:37.518Z,18.00
2017-08-19T06:59:40.033Z,18.00
2017-08-19T07:04:42.644Z,19.00
2017-08-19T07:09:45.426Z,19.40
2017-08-19T07:14:47.077Z,18.50
2017-08-19T07:19:52.253Z,19.30
2017-08-19T07:24:53.823Z,19.90
2017-08-19T07:29:55.598Z,19.90
2017-08-19T07:34:57.886Z,20.40
2017-08-19T07:40:00.180Z,20.40
2017-08-19T07:45:02.292Z,19.90
2017-08-19T07:50:04.031Z,20.00
2017-08-19T07:55:05.679Z,19.90
2017-08-19T08:00:07.377Z,20.00
2017-08-19T08:05:09.048Z,19.70
2017-08-19T08:10:11.361Z,20.00
2017-08-19T08:15:13.624Z,18.70
2017-08-19T08:20:15.268Z,19.40
2017-08-19T08:25:16.971Z,19.50
2017-08-19T08:30:19.208Z,20.50
2017-08-19T08:35:20.928Z,20.20
2017-08-19T08:40:22.484Z,20.30
2017-08-19T08:45:24.275Z,20.50
2017-08-19T08:50:26.766Z,20.30
2017-08-19T08:55:29.258Z,19.30
2017-08-19T09:00:30.931Z,20.80
2017-08-19T09:05:33.217Z,20.70
2017-08-19T09:10:35.258Z,20.80
2017-08-19T09:15:37.344Z,20.90
2017-08-19T09:20:39.028Z,20.80
2017-08-19T09:25:41.341Z,21.20
2017-08-19T09:30:42.995Z,21.60
2017-08-19T09:35:44.688Z,21.40
2017-08-19T09:40:46.974Z,22.30
2017-08-19T09:45:48.647Z,20.70
2017-08-19T09:50:50.397Z,21.50
2017-08-19T09:55:52.709Z,22.50
2017-08-19T10:00:54.356Z,21.90
2017-08-19T10:05:55.925Z,21.60
2017-08-19T10:16:30.789Z,20.90
2017-08-19T10:21:32.379Z,20.80
2017-08-19T10:26:33.957Z,20.70
2017-08-19T10:31:35.532Z,20.80
2017-08-19T10:36:37.097Z,21.30
2017-08-19T10:41:38.671Z,21.40
2017-08-19T10:46:41.387Z,20.70
2017-08-19T10:51:43.061Z,21.10
2017-08-19T10:56:44.709Z,21.50
2017-08-19T11:01:46.404Z,21.40
2017-08-19T11:06:48.084Z,21.20
2017-08-19T11:11:49.751Z,21.60
2017-08-19T11:16:51.915Z,21.60
2017-08-19T11:21:53.690Z,21.40
2017-08-19T11:26:55.282Z,21.60
2017-08-19T11:31:58.694Z,21.50
2017-08-19T11:37:00.366Z,21.50
2017-08-19T11:42:02.606Z,21.30
2017-08-19T11:47:04.330Z,21.60
2017-08-19T11:52:06.613Z,21.50
2017-08-19T11:57:09.468Z,21.40
2017-08-19T12:02:12.276Z,21.80
2017-08-19T12:07:13.885Z,21.10
2017-08-19T12:12:15.558Z,21.40
2017-08-19T12:17:17.232Z,21.70
2017-08-19T12:22:18.901Z,22.10
2017-08-19T12:27:21.403Z,22.00
2017-08-19T12:32:23.579Z,21.60
2017-08-19T12:37:25.940Z,20.90
2017-08-19T12:42:27.642Z,21.80
2017-08-19T12:47:29.315Z,22.10
2017-08-19T12:52:30.988Z,21.60
2017-08-19T12:57:32.638Z,21.40
2017-08-19T13:02:34.949Z,22.00
2017-08-19T13:07:37.068Z,21.90
2017-08-19T13:12:38.713Z,21.30
2017-08-19T13:17:40.376Z,21.00
2017-08-19T13:22:42.048Z,21.70
2017-08-19T13:27:43.721Z,21.80
2017-08-19T13:32:45.394Z,21.20
2017-08-19T13:37:47.068Z,21.00
2017-08-19T13:42:48.713Z,21.00
2017-08-19T13:47:51.232Z,21.70
2017-08-19T13:52:53.604Z,21.80
2017-08-19T13:57:55.294Z,21.90
2017-08-19T14:02:57.581Z,21.50
2017-08-19T14:07:59.229Z,21.10
2017-08-19T14:13:01.540Z,21.00
2017-08-19T14:18:03.873Z,20.80
2017-08-19T14:23:05.500Z,21.00
2017-08-19T14:28:07.276Z,21.00
2017-08-19T14:33:08.853Z,21.20
2017-08-19T14:38:10.622Z,21.20
2017-08-19T14:43:13.229Z,21.00
2017-08-19T14:48:14.969Z,20.90
2017-08-19T14:53:17.108Z,21.60
2017-08-19T14:58:18.747Z,21.90
2017-08-19T15:03:20.419Z,21.80
2017-08-19T15:08:22.094Z,21.60
2017-08-19T15:13:23.737Z,21.60
2017-08-19T15:18:25.971Z,20.90
2017-08-19T15:23:27.727Z,21.30
2017-08-19T15:28:30.002Z,21.20
2017-08-19T15:33:31.661Z,21.20
2017-08-19T15:38:33.801Z,21.20
2017-08-19T15:43:35.414Z,21.30
2017-08-19T15:48:37.089Z,21.20
2017-08-19T15:53:39.935Z,21.20
2017-08-19T15:58:41.695Z,21.20
2017-08-19T16:03:43.784Z,21.20
2017-08-19T16:08:45.354Z,21.10
2017-08-19T16:13:47.114Z,21.00
2017-08-19T16:18:48.788Z,21.10
2017-08-19T16:23:50.458Z,21.10
2017-08-19T16:28:52.623Z,20.80
2017-08-19T16:33:54.217Z,20.60
2017-08-19T16:38:55.785Z,20.70
2017-08-19T16:43:57.561Z,20.70
2017-08-19T16:48:59.672Z,20.70
2017-08-19T16:54:01.315Z,20.80
2017-08-19T16:59:02.967Z,20.50
2017-08-19T17:04:05.317Z,20.20
2017-08-19T17:09:07.450Z,20.20
2017-08-19T17:14:09.236Z,20.10
2017-08-19T17:19:11.523Z,20.10
2017-08-19T17:24:13.173Z,20.20
2017-08-19T17:29:15.483Z,20.20
2017-08-19T17:34:17.686Z,20.00
2017-08-19T17:39:20.057Z,20.00
2017-08-19T17:44:21.730Z,19.90
2017-08-19T17:49:23.825Z,19.90
2017-08-19T17:54:25.690Z,19.80
2017-08-19T17:59:28.765Z,19.70
2017-08-19T18:04:30.468Z,19.50
2017-08-19T18:09:32.675Z,19.30
2017-08-19T18:14:34.968Z,19.20
2017-08-19T18:19:39.299Z,19.10
2017-08-19T18:24:40.930Z,19.00
2017-08-19T18:29:42.826Z,18.90
2017-08-19T18:34:46.261Z,18.90
2017-08-19T18:39:49.473Z,18.90
2017-08-19T18:44:51.123Z,18.90
2017-08-19T18:49:53.247Z,18.90
2017-08-19T18:54:55.587Z,18.60
2017-08-19T18:59:57.949Z,18.20
2017-08-19T19:05:00.352Z,18.10
2017-08-19T19:10:02.126Z,18.00
2017-08-19T19:15:03.797Z,18.00
2017-08-19T19:20:05.421Z,18.00
2017-08-19T19:25:07.041Z,17.90
2017-08-19T19:30:09.123Z,17.80
2017-08-19T19:35:10.706Z,18.00
2017-08-19T19:40:12.329Z,18.00
2017-08-19T19:45:13.956Z,17.80
2017-08-19T19:50:15.523Z,17.90
2017-08-19T19:55:17.788Z,17.90
2017-08-19T20:00:20.124Z,17.80
2017-08-19T20:05:22.712Z,17.80
2017-08-19T20:10:24.473Z,17.80
2017-08-19T20:15:26.761Z,17.70
2017-08-19T20:20:28.434Z,17.70
2017-08-19T20:25:30.109Z,17.60
2017-08-19T20:30:31.959Z,17.60
2017-08-19T20:35:34.373Z,17.50
2017-08-19T20:40:36.046Z,17.40
2017-08-19T20:45:37.719Z,17.30
2017-08-19T20:50:39.392Z,17.20
2017-08-19T20:55:40.963Z,17.30
2017-08-19T21:00:42.738Z,17.20
2017-08-19T21:05:44.388Z,17.20
2017-08-19T21:10:46.799Z,17.20
2017-08-19T21:15:49.611Z,17.10
2017-08-19T21:20:51.988Z,17.10
2017-08-19T21:25:54.480Z,16.90
2017-08-19T21:30:56.725Z,16.90
2017-08-19T21:35:58.418Z,16.90
2017-08-19T21:41:00.112Z,16.80
2017-08-19T21:46:01.761Z,16.80
2017-08-19T21:51:03.459Z,16.70
2017-08-19T21:56:05.131Z,16.60
2017-08-19T22:01:06.906Z,16.60
2017-08-19T22:06:08.579Z,16.50
2017-08-19T22:11:10.225Z,16.50
2017-08-19T22:16:12.540Z,16.50
2017-08-19T22:21:14.113Z,16.30
2017-08-19T22:26:17.032Z,16.30
2017-08-19T22:31:18.665Z,16.20
2017-08-19T22:36:21.620Z,16.20
2017-08-19T22:41:23.441Z,16.10
2017-08-19T22:46:25.317Z,16.10
2017-08-19T22:51:26.990Z,16.10
2017-08-19T22:56:28.890Z,16.20
2017-08-19T23:01:30.562Z,16.10
2017-08-19T23:06:32.353Z,15.90
2017-08-19T23:11:34.843Z,15.90
2017-08-19T23:16:36.412Z,15.90
2017-08-19T23:21:38.804Z,15.90
2017-08-19T23:26:40.908Z,15.70
2017-08-19T23:31:42.562Z,15.70
2017-08-19T23:36:44.230Z,15.50
2017-08-19T23:41:45.901Z,15.40
2017-08-19T23:46:47.534Z,15.30
2017-08-19T23:51:49.250Z,15.20
2017-08-19T23:56:50.922Z,15.20
